createdAt,value
2022-08-17T00:01:20.493Z,91.50
2022-08-17T00:04:25.732Z,92.00
2022-08-17T00:07:00.554Z,92.00
2022-08-17T00:09:36.383Z,92.10
2022-08-17T00:12:40.666Z,92.10
2022-08-17T00:15:13.543Z,92.90
2022-08-17T00:17:49.573Z,92.40
2022-08-17T00:20:32.137Z,92.60
2022-08-17T00:23:17.176Z,93.60
2022-08-17T00:27:06.526Z,92.40
2022-08-17T00:29:45.936Z,92.30
2022-08-17T00:33:36.829Z,92.70
2022-08-17T00:36:24.283Z,92.20
2022-08-17T00:39:03.112Z,92.30
2022-08-17T00:41:42.146Z,92.40
2022-08-17T00:44:18.925Z,92.20
2022-08-17T00:46:57.262Z,92.80
2022-08-17T00:49:31.680Z,92.40
2022-08-17T00:52:19.235Z,92.60
2022-08-17T00:54:56.670Z,93.10
2022-08-17T00:57:37.545Z,93.40
2022-08-17T01:00:21.928Z,93.20
2022-08-17T01:03:01.366Z,93.10
2022-08-17T01:05:46.608Z,93.20
2022-08-17T01:08:28.276Z,93.20
2022-08-17T01:15:40.593Z,92.90
2022-08-17T01:18:27.590Z,92.90
2022-08-17T01:21:09.613Z,93.30
2022-08-17T01:24:30.446Z,93.20
2022-08-17T01:27:10.811Z,92.90
2022-08-17T01:29:49.909Z,93.60
2022-08-17T01:36:38.911Z,93.40
2022-08-17T01:39:33.408Z,93.40
2022-08-17T01:46:22.302Z,93.90
2022-08-17T01:49:03.525Z,93.50
2022-08-17T01:51:39.094Z,93.50
2022-08-17T01:54:19.105Z,93.50
2022-08-17T01:56:55.356Z,93.60
2022-08-17T01:59:29.960Z,93.70
2022-08-17T02:02:05.035Z,94.10
2022-08-17T02:04:39.788Z,94.10
2022-08-17T02:07:15.221Z,94.80
2022-08-17T02:09:52.748Z,93.90
2022-08-17T02:13:10.433Z,94.70
2022-08-17T02:20:50.865Z,94.10
2022-08-17T02:24:59.509Z,94.10
2022-08-17T02:27:35.912Z,93.90
2022-08-17T02:31:00.765Z,94.00
2022-08-17T02:33:10.774Z,94.30
2022-08-17T02:35:46.044Z,94.10
2022-08-17T02:38:21.229Z,94.50
2022-08-17T02:40:56.056Z,94.30
2022-08-17T02:43:30.681Z,95.10
2022-08-17T02:46:06.671Z,94.70
2022-08-17T02:48:45.075Z,94.80
2022-08-17T02:51:19.909Z,94.50
2022-08-17T02:54:35.712Z,94.80
2022-08-17T03:01:02.003Z,94.50
2022-08-17T03:04:37.748Z,94.50
2022-08-17T03:07:12.202Z,94.40
2022-08-17T03:09:48.086Z,94.30
2022-08-17T03:12:23.367Z,94.40
2022-08-17T03:14:58.803Z,94.50
2022-08-17T03:17:39.321Z,94.50
2022-08-17T03:20:17.779Z,94.80
2022-08-17T03:22:55.311Z,95.40
2022-08-17T03:25:39.519Z,95.70
2022-08-17T03:28:15.167Z,95.30
2022-08-17T03:35:03.744Z,94.40
2022-08-17T03:42:32.584Z,94.60
2022-08-17T03:49:50.041Z,94.70
2022-08-17T03:52:58.622Z,94.60
2022-08-17T03:56:31.683Z,94.60
2022-08-17T03:59:21.226Z,94.50
2022-08-17T04:02:00.209Z,94.40
2022-08-17T04:04:35.747Z,94.70
2022-08-17T04:07:10.840Z,94.30
2022-08-17T04:09:58.469Z,94.40
2022-08-17T04:12:50.355Z,94.50
2022-08-17T04:15:27.550Z,94.70
2022-08-17T04:18:12.280Z,94.90
2022-08-17T04:21:20.311Z,94.50
2022-08-17T04:24:05.160Z,94.50
2022-08-17T04:26:53.796Z,94.70
2022-08-17T04:29:48.759Z,94.70
2022-08-17T04:33:03.523Z,95.10
2022-08-17T04:35:26.246Z,94.90
2022-08-17T04:38:01.104Z,95.30
2022-08-17T04:40:53.190Z,95.50
2022-08-17T04:43:42.032Z,95.60
2022-08-17T04:46:22.571Z,95.20
2022-08-17T04:48:59.278Z,95.20
2022-08-17T04:51:54.563Z,95.60
2022-08-17T04:55:26.551Z,95.60
2022-08-17T05:03:08.924Z,95.10
2022-08-17T05:14:04.386Z,94.80
2022-08-17T05:17:14.233Z,94.70
2022-08-17T05:24:01.209Z,94.80
2022-08-17T05:26:56.654Z,94.90
2022-08-17T05:30:49.313Z,94.70
2022-08-17T05:34:09.578Z,94.70
2022-08-17T05:36:45.231Z,94.60
2022-08-17T05:39:28.984Z,95.00
2022-08-17T05:50:41.548Z,94.80
2022-08-17T05:53:35.724Z,94.90
2022-08-17T06:00:30.100Z,94.30
2022-08-17T06:07:25.651Z,93.50
2022-08-17T06:14:47.439Z,92.60
2022-08-17T06:17:25.829Z,92.30
2022-08-17T06:24:27.531Z,92.30
2022-08-17T06:35:32.052Z,91.70
2022-08-17T06:43:02.780Z,91.20
2022-08-17T06:49:53.216Z,91.20
2022-08-17T06:53:54.792Z,91.00
2022-08-17T06:57:43.945Z,91.00
2022-08-17T07:04:35.084Z,91.20
2022-08-17T07:07:26.382Z,91.10
2022-08-17T07:10:03.165Z,90.40
2022-08-17T07:12:42.704Z,90.70
2022-08-17T07:15:43.031Z,90.60
2022-08-17T07:18:17.276Z,90.50
2022-08-17T07:21:11.099Z,90.30
2022-08-17T07:28:05.983Z,90.30
2022-08-17T07:30:48.989Z,88.40
2022-08-17T07:33:29.698Z,88.90
2022-08-17T07:36:30.020Z,88.70
2022-08-17T07:39:05.768Z,84.00
2022-08-17T07:41:53.061Z,86.10
2022-08-17T07:44:51.543Z,87.40
2022-08-17T07:51:42.203Z,87.30
2022-08-17T07:54:24.642Z,87.40
2022-08-17T07:57:03.464Z,86.10
2022-08-17T08:03:52.622Z,85.50
2022-08-17T08:06:27.470Z,85.50
2022-08-17T08:09:03.316Z,85.80
2022-08-17T08:11:44.148Z,85.40
2022-08-17T08:14:28.529Z,85.20
2022-08-17T08:17:26.867Z,83.80
2022-08-17T08:20:34.952Z,84.30
2022-08-17T08:23:15.785Z,83.70
2022-08-17T08:26:05.632Z,83.90
2022-08-17T08:29:34.708Z,83.70
2022-08-17T08:32:42.986Z,81.80
2022-08-17T08:35:33.771Z,82.00
2022-08-17T08:38:22.402Z,80.60
2022-08-17T08:42:24.808Z,81.50
2022-08-17T08:45:17.374Z,79.30
2022-08-17T08:52:11.894Z,78.20
2022-08-17T08:55:50.057Z,77.30
2022-08-17T08:58:53.727Z,77.50
2022-08-17T09:01:46.925Z,76.90
2022-08-17T09:05:12.873Z,77.10
2022-08-17T09:07:54.770Z,77.30
2022-08-17T09:10:51.847Z,78.00
2022-08-17T09:13:40.748Z,79.80
2022-08-17T09:16:40.507Z,77.70
2022-08-17T09:19:20.682Z,77.30
2022-08-17T09:21:56.493Z,78.00
2022-08-17T09:24:40.180Z,78.60
2022-08-17T09:27:26.807Z,77.80
2022-08-17T09:30:11.000Z,79.10
2022-08-17T09:32:52.131Z,77.50
2022-08-17T09:35:44.642Z,77.60
2022-08-17T09:38:32.174Z,78.90
2022-08-17T09:41:16.723Z,77.60
2022-08-17T09:44:06.938Z,78.50
2022-08-17T09:46:49.437Z,78.40
2022-08-17T09:49:33.107Z,79.20
2022-08-17T09:56:36.651Z,75.90
2022-08-17T09:59:45.183Z,80.50
2022-08-17T10:11:00.201Z,77.30
2022-08-17T10:17:40.469Z,80.90
2022-08-17T10:20:20.720Z,79.60
2022-08-17T10:27:19.312Z,82.70
2022-08-17T10:29:58.575Z,83.30
2022-08-17T10:36:56.906Z,89.10
2022-08-17T10:44:38.145Z,87.40
2022-08-17T10:47:08.965Z,85.30
2022-08-17T10:50:48.051Z,89.30
2022-08-17T10:54:35.281Z,89.90
2022-08-17T10:57:58.539Z,88.40
2022-08-17T11:01:13.156Z,87.00
2022-08-17T11:04:39.145Z,87.90
2022-08-17T11:07:49.862Z,84.70
2022-08-17T11:11:12.724Z,81.40
2022-08-17T11:14:11.545Z,82.20
2022-08-17T11:18:15.306Z,80.20
2022-08-17T11:21:46.450Z,80.20
2022-08-17T11:28:52.874Z,78.40
2022-08-17T11:31:38.281Z,78.80
2022-08-17T11:38:36.361Z,79.10
2022-08-17T11:45:55.107Z,78.80
2022-08-17T11:49:45.048Z,78.40
2022-08-17T11:52:45.955Z,79.60
2022-08-17T11:56:03.101Z,80.00
2022-08-17T11:58:52.042Z,80.20
2022-08-17T12:05:39.731Z,79.30
2022-08-17T12:12:33.846Z,77.30
2022-08-17T12:15:58.522Z,75.60
2022-08-17T12:18:59.143Z,73.70
2022-08-17T12:21:54.712Z,74.10
2022-08-17T12:24:47.586Z,73.10
2022-08-17T12:28:04.399Z,72.40
2022-08-17T12:30:33.087Z,74.00
2022-08-17T12:40:24.093Z,72.60
2022-08-17T12:43:01.613Z,71.00
2022-08-17T12:45:39.713Z,70.20
2022-08-17T12:48:24.554Z,70.20
2022-08-17T12:51:20.685Z,68.20
2022-08-17T12:53:57.173Z,68.20
2022-08-17T12:56:33.335Z,68.80
2022-08-17T12:59:07.953Z,69.60
2022-08-17T13:01:58.348Z,68.70
2022-08-17T13:05:10.758Z,68.10
2022-08-17T13:08:12.632Z,67.90
2022-08-17T13:11:09.204Z,68.10
2022-08-17T13:13:52.415Z,68.20
2022-08-17T13:17:09.892Z,69.30
2022-08-17T13:19:51.528Z,68.40
2022-08-17T13:22:37.675Z,70.50
2022-08-17T13:25:24.095Z,70.80
2022-08-17T13:28:05.018Z,68.80
2022-08-17T13:31:58.908Z,70.20
2022-08-17T13:35:39.937Z,66.90
2022-08-17T13:38:41.657Z,68.20
2022-08-17T13:41:50.725Z,67.30
2022-08-17T13:44:40.646Z,68.00
2022-08-17T13:47:22.344Z,68.20
2022-08-17T13:50:01.723Z,66.70
2022-08-17T13:53:05.513Z,67.40
2022-08-17T13:55:54.248Z,63.50
2022-08-17T14:02:27.773Z,65.80
2022-08-17T14:09:33.574Z,65.40
2022-08-17T14:12:18.585Z,63.10
2022-08-17T14:18:59.281Z,63.80
2022-08-17T14:21:35.555Z,62.50
2022-08-17T14:24:22.820Z,62.80
2022-08-17T14:27:00.953Z,63.40
2022-08-17T14:29:41.229Z,62.60
2022-08-17T14:32:25.491Z,62.70
2022-08-17T14:36:08.911Z,64.50
2022-08-17T14:42:59.732Z,62.30
2022-08-17T14:45:47.590Z,64.30
2022-08-17T14:49:26.631Z,62.10
2022-08-17T14:52:03.527Z,61.80
2022-08-17T14:54:45.137Z,63.20
2022-08-17T14:57:26.000Z,64.30
2022-08-17T15:00:12.008Z,63.00
2022-08-17T15:03:00.341Z,61.80
2022-08-17T15:18:06.237Z,62.90
2022-08-17T15:20:40.843Z,63.70
2022-08-17T15:23:28.164Z,63.60
2022-08-17T15:26:12.892Z,62.90
2022-08-17T15:28:57.683Z,63.30
2022-08-17T15:35:50.740Z,60.00
2022-08-17T15:38:40.364Z,61.80
2022-08-17T15:41:28.515Z,59.80
2022-08-17T15:52:48.134Z,60.90
2022-08-17T15:59:30.730Z,62.00
2022-08-17T16:03:14.118Z,63.20
2022-08-17T16:06:02.717Z,64.10
2022-08-17T16:08:54.461Z,63.50
2022-08-17T16:11:40.144Z,63.70
2022-08-17T16:14:39.732Z,63.80
2022-08-17T16:20:58.917Z,64.30
2022-08-17T16:23:33.272Z,63.40
2022-08-17T16:26:35.113Z,64.10
2022-08-17T16:29:11.813Z,65.50
2022-08-17T16:32:13.378Z,64.50
2022-08-17T16:34:52.498Z,63.20
2022-08-17T16:41:45.773Z,64.20
2022-08-17T16:48:55.070Z,64.10
2022-08-17T16:55:55.918Z,65.90
2022-08-17T17:03:45.509Z,66.20
2022-08-17T17:06:55.354Z,66.10
2022-08-17T17:09:40.637Z,66.90
2022-08-17T17:13:01.130Z,67.50
2022-08-17T17:15:21.994Z,66.70
2022-08-17T17:18:23.316Z,69.70
2022-08-17T17:21:20.581Z,68.30
2022-08-17T17:24:02.002Z,68.80
2022-08-17T17:27:10.006Z,69.50
2022-08-17T17:30:01.511Z,71.10
2022-08-17T17:32:51.533Z,71.40
2022-08-17T17:35:36.033Z,70.10
2022-08-17T17:38:22.612Z,69.80
2022-08-17T17:41:07.497Z,71.10
2022-08-17T17:44:03.811Z,69.70
2022-08-17T17:46:42.146Z,69.80
2022-08-17T17:49:19.233Z,68.70
2022-08-17T17:52:11.137Z,69.40
2022-08-17T17:55:07.777Z,70.50
2022-08-17T17:58:04.804Z,67.60
2022-08-17T18:00:45.137Z,68.70
2022-08-17T18:03:59.230Z,68.50
2022-08-17T18:06:46.585Z,68.50
2022-08-17T18:09:34.870Z,68.60
2022-08-17T18:12:45.139Z,69.10
2022-08-17T18:19:30.795Z,69.20
2022-08-17T18:22:14.865Z,70.40
2022-08-17T18:28:57.357Z,71.00
2022-08-17T18:31:33.382Z,71.80
2022-08-17T18:38:29.977Z,73.20
2022-08-17T18:41:21.488Z,73.50
2022-08-17T18:44:45.201Z,74.10
2022-08-17T18:47:22.910Z,73.60
2022-08-17T18:50:27.367Z,76.10
2022-08-17T18:53:33.519Z,76.10
2022-08-17T18:56:26.646Z,77.70
2022-08-17T18:59:33.735Z,75.70
2022-08-17T19:02:45.694Z,76.00
2022-08-17T19:05:34.714Z,76.30
2022-08-17T19:08:33.875Z,76.30
2022-08-17T19:11:21.941Z,76.80
2022-08-17T19:14:03.439Z,77.90
2022-08-17T19:16:51.986Z,77.60
2022-08-17T19:19:35.352Z,77.80
2022-08-17T19:22:28.782Z,77.10
2022-08-17T19:29:19.600Z,78.30
2022-08-17T19:31:58.794Z,78.50
2022-08-17T19:34:35.953Z,80.80
2022-08-17T19:37:34.732Z,79.40
2022-08-17T19:44:47.713Z,79.40
2022-08-17T19:47:56.014Z,79.90
2022-08-17T19:51:37.673Z,80.00
2022-08-17T19:54:20.817Z,79.70
2022-08-17T19:57:04.146Z,79.90
2022-08-17T20:04:32.768Z,80.50
2022-08-17T20:11:34.814Z,81.70
2022-08-17T20:14:37.847Z,81.80
2022-08-17T20:35:17.686Z,82.40
2022-08-17T20:38:39.452Z,83.00
2022-08-17T20:41:25.225Z,83.10
2022-08-17T20:44:47.589Z,84.50
2022-08-17T20:47:28.859Z,83.10
2022-08-17T20:50:10.688Z,83.10
2022-08-17T20:52:53.865Z,82.70
2022-08-17T20:55:56.273Z,83.50
2022-08-17T20:58:50.134Z,83.60
2022-08-17T21:01:39.729Z,83.50
2022-08-17T21:04:47.521Z,85.60
2022-08-17T21:08:01.239Z,84.40
2022-08-17T21:10:39.691Z,84.20
2022-08-17T21:14:05.459Z,84.20
2022-08-17T21:17:12.499Z,84.10
2022-08-17T21:20:12.588Z,84.40
2022-08-17T21:23:02.782Z,84.60
2022-08-17T21:26:12.703Z,84.80
2022-08-17T21:29:29.639Z,84.90
2022-08-17T21:32:24.437Z,85.90
2022-08-17T21:39:13.843Z,84.90
2022-08-17T21:41:55.917Z,86.10
2022-08-17T21:45:03.899Z,87.30
2022-08-17T21:47:47.891Z,87.10
2022-08-17T21:50:31.653Z,87.90
2022-08-17T21:53:08.903Z,88.60
2022-08-17T21:55:45.532Z,88.70
2022-08-17T21:58:31.242Z,90.00
2022-08-17T22:01:24.601Z,87.80
2022-08-17T22:04:08.762Z,88.40
2022-08-17T22:06:57.185Z,86.90
2022-08-17T22:09:51.878Z,87.90
2022-08-17T22:12:28.389Z,87.00
2022-08-17T22:15:20.667Z,88.80
2022-08-17T22:17:59.496Z,88.20
2022-08-17T22:20:50.820Z,89.20
2022-08-17T22:23:58.305Z,88.60
2022-08-17T22:27:07.054Z,89.80
2022-08-17T22:30:18.774Z,89.70
2022-08-17T22:33:38.467Z,90.50
2022-08-17T22:36:30.810Z,90.60
2022-08-17T22:39:42.806Z,91.30
2022-08-17T22:42:23.742Z,91.50
2022-08-17T22:45:40.937Z,91.60
2022-08-17T22:48:27.217Z,92.10
2022-08-17T22:51:24.188Z,92.80
2022-08-17T22:54:33.552Z,92.90
2022-08-17T22:57:33.126Z,92.90
2022-08-17T23:00:30.649Z,92.80
2022-08-17T23:03:17.132Z,93.40
2022-08-17T23:06:09.510Z,93.40
2022-08-17T23:09:05.449Z,93.50
2022-08-17T23:11:50.374Z,93.80
2022-08-17T23:14:31.924Z,94.40
2022-08-17T23:17:13.101Z,94.50
2022-08-17T23:19:49.520Z,94.70
2022-08-17T23:22:27.905Z,94.50
2022-08-17T23:25:02.916Z,95.30
2022-08-17T23:27:41.852Z,95.50
2022-08-17T23:30:18.583Z,95.10
2022-08-17T23:32:54.389Z,95.30
2022-08-17T23:35:39.888Z,95.90
2022-08-17T23:38:19.423Z,95.70
2022-08-17T23:40:55.029Z,96.50
2022-08-17T23:43:44.204Z,96.60
2022-08-17T23:46:21.014Z,96.10
2022-08-17T23:49:00.644Z,97.30
2022-08-17T23:51:42.832Z,96.90
2022-08-17T23:54:51.299Z,96.80
2022-08-17T23:57:35.093Z,96.80
